Time;durP1;ratioP1;P1;durP2;ratioP2;P2;SDS_P1;SDS_P2;PMS_P1;PMS_P2;Temp;Humidity;BMP_temperature;BMP_pressure;BME280_temperature;BME280_humidity;BME280_pressure;Samples;Min_cycle;Max_cycle;Signal;HPM_P1;HPM_P2
2024/01/28 00:01:56;;;;;;;13.73;4.82;;;3.50;99.90;;;;;;5021766;28;20021;-78
2024/01/28 00:04:22;;;;;;;;;;;3.30;99.90;;;;;;5040177;28;20152;-77
2024/01/28 00:06:47;;;;;;;20.17;6.43;;;3.20;99.90;;;;;;5034701;28;20396;-77
2024/01/28 00:09:13;;;;;;;;;;;3.30;99.90;;;;;;5035113;28;20131;-77
2024/01/28 00:11:39;;;;;;;27.52;10.05;;;3.30;99.90;;;;;;5034951;28;19913;-78
2024/01/28 00:14:05;;;;;;;25.02;9.60;;;3.40;99.90;;;;;;5018798;28;20041;-77
2024/01/28 00:16:31;;;;;;;23.27;7.93;;;3.40;99.90;;;;;;5019443;28;20433;-77
2024/01/28 00:19:00;;;;;;;;;;;3.30;99.90;;;;;;5035273;28;20042;-78
2024/01/28 00:21:26;;;;;;;21.05;6.15;;;3.30;99.90;;;;;;5018126;28;20452;-77
2024/01/28 00:23:52;;;;;;;17.67;5.15;;;3.40;99.90;;;;;;5027973;28;20029;-79
2024/01/28 00:26:17;;;;;;;;;;;3.40;99.90;;;;;;5021213;28;20029;-78
2024/01/28 00:28:43;;;;;;;14.10;4.85;;;3.20;99.90;;;;;;5018409;28;19912;-79
2024/01/28 00:31:12;;;;;;;;;;;3.10;99.90;;;;;;5018274;28;20028;-78
2024/01/28 00:33:38;;;;;;;20.17;6.50;;;3.10;99.90;;;;;;5037731;28;19912;-78
2024/01/28 00:36:04;;;;;;;;;;;3.00;99.90;;;;;;5022664;28;20034;-78
2024/01/28 00:38:31;;;;;;;20.05;6.55;;;2.90;99.90;;;;;;5019011;28;19980;-78
2024/01/28 00:41:00;;;;;;;22.38;8.43;;;2.80;99.90;;;;;;5035014;28;20029;-78
2024/01/28 00:43:27;;;;;;;24.48;8.40;;;2.80;99.90;;;;;;5016958;28;20033;-78
2024/01/28 00:45:53;;;;;;;20.85;8.23;;;2.70;99.90;;;;;;5017124;28;20482;-77
2024/01/28 00:48:18;;;;;;;;;;;2.70;99.90;;;;;;5017529;28;20028;-77
2024/01/28 00:50:44;;;;;;;27.52;10.60;;;2.60;99.90;;;;;;5016616;28;19908;-78
2024/01/28 00:53:10;;;;;;;;;;;2.50;99.90;;;;;;5017555;28;20044;-77
2024/01/28 00:55:35;;;;;;;36.53;13.88;;;2.40;99.90;;;;;;5016382;28;19916;-77
2024/01/28 00:58:04;;;;;;;;;;;2.40;99.90;;;;;;5034547;28;20041;-78
2024/01/28 01:00:30;;;;;;;30.88;12.00;;;2.40;99.90;;;;;;5016678;28;19909;-78
2024/01/28 01:02:56;;;;;;;29.65;11.48;;;2.40;99.90;;;;;;5016937;28;20053;-78
2024/01/28 01:05:21;;;;;;;;;;;2.40;99.90;;;;;;5034939;28;20031;-77
2024/01/28 01:07:47;;;;;;;19.33;6.53;;;2.40;99.90;;;;;;5016977;28;19912;-78
2024/01/28 01:10:13;;;;;;;;;;;2.40;99.90;;;;;;5017025;28;20452;-78
2024/01/28 01:12:39;;;;;;;18.23;7.68;;;2.40;99.90;;;;;;5034222;28;20019;-78
2024/01/28 01:15:05;;;;;;;;;;;2.30;99.90;;;;;;5019328;28;20061;-78
2024/01/28 01:17:30;;;;;;;17.63;5.88;;;2.20;99.90;;;;;;5019613;28;19905;-78
2024/01/28 01:19:56;;;;;;;;;;;2.20;99.90;;;;;;5036593;28;20400;-77
2024/01/28 01:22:21;;;;;;;21.75;7.80;;;2.20;99.90;;;;;;5022018;28;19912;-78
2024/01/28 01:24:47;;;;;;;;;;;2.30;99.90;;;;;;5050505;28;20010;-79
2024/01/28 01:27:13;;;;;;;20.08;6.95;;;2.30;99.90;;;;;;5047094;28;19996;-79
2024/01/28 01:29:38;;;;;;;;;;;2.20;99.90;;;;;;5048897;28;20024;-78
2024/01/28 01:32:04;;;;;;;13.88;4.50;;;2.20;99.90;;;;;;5050694;28;19905;-79
2024/01/28 01:34:30;;;;;;;;;;;2.30;99.90;;;;;;5030376;28;20063;-79
2024/01/28 01:36:55;;;;;;;10.43;3.70;;;2.30;99.90;;;;;;5025370;28;19905;-78
2024/01/28 01:39:21;;;;;;;;;;;2.30;99.90;;;;;;5022591;28;20048;-79
2024/01/28 01:41:46;;;;;;;13.23;3.13;;;2.30;99.90;;;;;;5028628;28;19928;-78
2024/01/28 01:44:12;;;;;;;;;;;2.30;99.90;;;;;;5023963;28;20033;-78
2024/01/28 01:46:39;;;;;;;6.60;2.33;;;2.30;99.90;;;;;;5028969;28;19909;-79
2024/01/28 01:49:05;;;;;;;9.32;3.15;;;2.30;99.90;;;;;;5032490;28;20059;-79
2024/01/28 01:51:31;;;;;;;;;;;2.20;99.90;;;;;;5033008;28;20052;-79
2024/01/28 01:53:57;;;;;;;7.45;1.98;;;2.20;99.90;;;;;;5032881;28;19905;-79
2024/01/28 01:56:23;;;;;;;;;;;2.20;99.90;;;;;;5050067;28;20010;-80
2024/01/28 01:58:49;;;;;;;6.10;1.15;;;2.30;99.90;;;;;;5034034;28;19927;-79
2024/01/28 02:01:16;;;;;;;8.65;1.15;;;2.40;99.90;;;;;;5029301;28;20486;-77
2024/01/28 02:03:42;;;;;;;10.82;2.05;;;2.60;99.90;;;;;;5027160;28;20030;-79
2024/01/28 02:06:10;;;;;;;7.65;1.48;;;2.60;99.90;;;;;;5026851;28;20005;-79
2024/01/28 02:08:36;;;;;;;17.60;4.18;;;2.80;99.90;;;;;;5026343;28;20052;-79
2024/01/28 02:11:04;;;;;;;;;;;2.80;99.90;;;;;;5045933;28;20021;-79
2024/01/28 02:13:30;;;;;;;7.50;2.15;;;2.80;99.90;;;;;;5046119;28;19931;-79
2024/01/28 02:15:56;;;;;;;;;;;2.80;99.90;;;;;;5046438;28;20029;-79
2024/01/28 02:18:21;;;;;;;11.55;1.90;;;2.80;99.90;;;;;;5028747;28;19988;-79
2024/01/28 02:20:47;;;;;;;;;;;2.90;99.90;;;;;;5046699;28;20018;-79
2024/01/28 02:23:21;;;;;;;5.82;1.35;;;3.00;99.90;;;;;;5029373;28;19920;-80
2024/01/28 02:26:05;;;;;;;8.55;1.48;;;3.00;99.90;;;;;;5027674;28;20029;-77
2024/01/28 02:28:31;;;;;;;5.78;1.73;;;3.00;99.90;;;;;;5024916;28;20049;-79
2024/01/28 02:30:57;;;;;;;8.35;1.83;;;3.00;99.90;;;;;;5025978;28;20059;-83
2024/01/28 02:33:23;;;;;;;;;;;3.10;99.90;;;;;;5045073;28;20112;-78
2024/01/28 02:35:48;;;;;;;8.02;1.80;;;3.00;99.90;;;;;;5047330;28;19992;-78
2024/01/28 02:38:14;;;;;;;;;;;3.00;99.90;;;;;;5033559;28;20089;-79
2024/01/28 02:40:39;;;;;;;7.63;1.27;;;3.10;99.90;;;;;;5049611;28;19915;-79
2024/01/28 02:43:05;;;;;;;;;;;3.30;99.40;;;;;;5052610;28;20060;-79
2024/01/28 02:45:31;;;;;;;5.80;1.35;;;3.20;98.50;;;;;;5037267;28;19940;-79
2024/01/28 02:47:57;;;;;;;;;;;3.30;97.80;;;;;;5037598;28;20037;-80
2024/01/28 02:50:23;;;;;;;9.43;1.35;;;3.30;97.40;;;;;;5037127;28;19905;-79
2024/01/28 02:52:48;;;;;;;;;;;3.30;97.10;;;;;;5038654;28;20021;-79
2024/01/28 02:55:14;;;;;;;6.28;1.30;;;3.30;96.40;;;;;;5059194;28;19905;-80
2024/01/28 02:57:39;;;;;;;;;;;3.20;96.40;;;;;;5038918;28;20037;-79
2024/01/28 03:00:06;;;;;;;13.23;2.10;;;3.30;96.00;;;;;;5037028;28;20404;-78
2024/01/28 03:02:32;;;;;;;7.55;1.58;;;3.20;95.60;;;;;;5054607;28;20018;-78
2024/01/28 03:04:57;;;;;;;;;;;3.20;95.30;;;;;;5037426;28;20125;-79
2024/01/28 03:07:23;;;;;;;6.18;1.23;;;3.20;94.90;;;;;;5036734;28;19905;-80
2024/01/28 03:09:48;;;;;;;;;;;3.20;94.30;;;;;;5037849;28;20052;-78
2024/01/28 03:12:14;;;;;;;8.00;1.33;;;3.30;93.30;;;;;;5030174;28;20321;-78
2024/01/28 03:14:39;;;;;;;;;;;3.50;92.00;;;;;;5020617;28;20033;-78
2024/01/28 03:17:05;;;;;;;6.00;1.02;;;3.60;91.20;;;;;;5021406;28;19909;-78
2024/01/28 03:19:31;;;;;;;;;;;3.60;90.50;;;;;;5038238;28;20044;-77
2024/01/28 03:21:56;;;;;;;8.38;1.70;;;3.70;89.70;;;;;;5023440;28;19955;-79
2024/01/28 03:24:22;;;;;;;;;;;3.70;88.90;;;;;;5046306;28;20104;-79
2024/01/28 03:26:48;;;;;;;7.10;1.88;;;3.80;88.50;;;;;;5046987;28;19909;-78
2024/01/28 03:29:13;;;;;;;;;;;3.90;87.70;;;;;;5032154;28;20556;-79
2024/01/28 03:31:40;;;;;;;6.85;1.17;;;3.70;87.70;;;;;;5048310;28;19905;-80
2024/01/28 03:34:06;;;;;;;7.05;1.17;;;3.60;88.50;;;;;;5027418;28;20040;-78
2024/01/28 03:36:32;;;;;;;;;;;3.50;87.30;;;;;;5052494;28;20047;-79
2024/01/28 03:38:57;;;;;;;10.75;2.53;;;3.70;85.60;;;;;;5035339;28;19948;-79
2024/01/28 03:41:23;;;;;;;;;;;3.80;84.50;;;;;;5035029;28;20068;-79
2024/01/28 03:43:48;;;;;;;7.78;1.55;;;3.90;83.80;;;;;;5035675;28;20723;-78
2024/01/28 03:46:14;;;;;;;;;;;3.80;83.70;;;;;;5036338;28;20025;-80
2024/01/28 03:48:40;;;;;;;6.32;0.88;;;3.80;81.50;;;;;;5030472;28;19908;-79
2024/01/28 03:51:06;;;;;;;;;;;3.90;79.70;;;;;;5037736;28;20100;-78
2024/01/28 03:53:32;;;;;;;6.47;0.95;;;3.90;80.00;;;;;;5021175;28;19909;-78
2024/01/28 03:55:58;;;;;;;;;;;3.70;81.00;;;;;;5039934;28;20032;-78
2024/01/28 03:58:23;;;;;;;6.32;1.15;;;3.70;80.40;;;;;;5021818;28;19917;-79
2024/01/28 04:00:49;;;;;;;;;;;3.60;80.40;;;;;;5021696;28;20490;-78
2024/01/28 04:03:14;;;;;;;7.70;0.90;;;3.60;80.90;;;;;;5021033;28;19913;-78
2024/01/28 04:05:42;;;;;;;;;;;3.40;81.80;;;;;;5030369;28;20032;-79
2024/01/28 04:08:11;;;;;;;5.05;1.90;;;3.40;82.70;;;;;;5028747;28;20284;-79
2024/01/28 04:10:37;;;;;;;9.70;1.80;;;3.40;83.20;;;;;;5023749;28;20028;-79
2024/01/28 04:13:02;;;;;;;;;;;3.20;84.20;;;;;;5023569;28;20033;-78
2024/01/28 04:15:28;;;;;;;5.15;0.93;;;3.10;85.30;;;;;;5023484;28;19940;-78
2024/01/28 04:17:53;;;;;;;;;;;2.90;86.30;;;;;;5024954;28;20104;-78
2024/01/28 04:20:19;;;;;;;9.50;2.42;;;2.80;87.90;;;;;;5041352;28;19905;-79
2024/01/28 04:22:44;;;;;;;;;;;2.60;88.30;;;;;;5023896;28;20033;-78
2024/01/28 04:25:12;;;;;;;9.23;2.03;;;2.60;89.90;;;;;;5022636;28;20302;-78
2024/01/28 04:27:37;;;;;;;6.85;1.67;;;2.40;90.10;;;;;;5041371;28;20401;-79
2024/01/28 04:30:04;;;;;;;;;;;2.20;90.90;;;;;;5024068;28;20096;-78
2024/01/28 04:32:29;;;;;;;10.07;1.38;;;2.30;90.70;;;;;;5041353;28;19909;-78
2024/01/28 04:34:55;;;;;;;;;;;2.20;90.60;;;;;;5041731;28;20029;-77
2024/01/28 04:37:22;;;;;;;8.43;1.80;;;2.20;90.80;;;;;;5023180;28;19932;-78
2024/01/28 04:39:48;;;;;;;4.53;1.33;;;2.20;90.90;;;;;;5041369;28;20037;-78
2024/01/28 04:42:14;;;;;;;3.75;1.15;;;2.10;90.70;;;;;;5022698;28;20056;-78
2024/01/28 04:44:40;;;;;;;;;;;2.10;90.50;;;;;;5040963;28;20116;-78
2024/01/28 04:47:06;;;;;;;12.85;1.60;;;2.10;90.50;;;;;;5040631;28;19936;-79
2024/01/28 04:49:32;;;;;;;4.60;1.10;;;2.00;90.90;;;;;;5041294;28;20017;-79
2024/01/28 04:51:58;;;;;;;8.80;3.40;;;2.10;89.30;;;;;;5042124;28;20036;-78
2024/01/28 04:54:24;;;;;;;;;;;2.00;89.70;;;;;;5051929;28;20018;-79
2024/01/28 04:56:49;;;;;;;7.53;1.45;;;2.10;87.50;;;;;;5054958;28;19936;-79
2024/01/28 04:59:15;;;;;;;;;;;2.30;82.80;;;;;;5033072;28;20128;-79
2024/01/28 05:01:41;;;;;;;4.55;1.20;;;2.30;83.60;;;;;;5029437;28;19905;-79
2024/01/28 05:04:06;;;;;;;;;;;2.20;84.80;;;;;;5046752;28;20036;-78
2024/01/28 05:06:35;;;;;;;8.30;1.27;;;2.20;85.70;;;;;;5028129;28;19912;-79
2024/01/28 05:09:03;;;;;;;10.60;1.95;;;2.30;84.10;;;;;;5043282;28;20034;-78
2024/01/28 05:11:32;;;;;;;6.05;1.30;;;2.20;83.60;;;;;;5051216;28;20036;-80
2024/01/28 05:13:58;;;;;;;4.30;1.10;;;2.20;83.70;;;;;;5053884;28;20117;-79
2024/01/28 05:16:24;;;;;;;11.85;2.47;;;2.20;83.50;;;;;;5028479;28;20029;-78
2024/01/28 05:18:51;;;;;;;;;;;2.20;83.70;;;;;;5045196;28;20034;-78
2024/01/28 05:21:18;;;;;;;6.13;0.85;;;2.30;82.60;;;;;;5046128;28;19912;-78
2024/01/28 05:23:47;;;;;;;3.17;0.52;;;2.50;79.30;;;;;;5045314;28;20034;-80
2024/01/28 05:26:14;;;;;;;4.85;1.20;;;2.70;76.60;;;;;;5045771;28;20429;-78
2024/01/28 05:28:39;;;;;;;80.18;33.33;;;2.90;74.90;;;;;;5042902;28;20025;-79
2024/01/28 05:31:06;;;;;;;;;;;2.80;75.30;;;;;;5044666;28;20155;-78
2024/01/28 05:33:34;;;;;;;38.10;15.60;;;2.80;76.20;;;;;;5022483;28;19909;-79
2024/01/28 05:36:00;;;;;;;26.75;10.90;;;2.70;76.50;;;;;;5020846;28;20041;-79
2024/01/28 05:38:26;;;;;;;25.25;9.90;;;2.70;77.40;;;;;;5048724;28;20045;-77
2024/01/28 05:40:52;;;;;;;6.70;1.70;;;2.80;76.80;;;;;;5043234;28;20100;-79
2024/01/28 05:43:17;;;;;;;;;;;2.90;74.50;;;;;;5043240;28;20092;-78
2024/01/28 05:45:43;;;;;;;6.18;2.22;;;3.00;73.90;;;;;;5028786;28;19909;-79
2024/01/28 05:48:09;;;;;;;;;;;2.90;74.40;;;;;;5033957;28;20032;-78
2024/01/28 05:50:34;;;;;;;11.25;2.92;;;2.90;75.00;;;;;;5033253;28;19906;-79
2024/01/28 05:53:00;;;;;;;;;;;2.70;75.60;;;;;;5049079;28;20026;-79
2024/01/28 05:55:25;;;;;;;5.53;1.75;;;2.60;76.00;;;;;;5034412;28;19916;-79
2024/01/28 05:57:53;;;;;;;;;;;2.50;76.10;;;;;;5047529;28;20021;-79
2024/01/28 06:00:19;;;;;;;7.05;2.05;;;2.50;77.00;;;;;;5028769;28;20015;-79
2024/01/28 06:02:45;;;;;;;;;;;2.40;77.80;;;;;;5028216;28;20080;-80
2024/01/28 06:05:11;;;;;;;3.70;0.93;;;2.40;78.40;;;;;;5027369;28;19909;-78
2024/01/28 06:07:36;;;;;;;;;;;2.60;82.40;;;;;;5028416;28;20025;-79
2024/01/28 06:10:02;;;;;;;6.95;0.95;;;2.60;83.90;;;;;;5041203;28;19905;-79
2024/01/28 06:12:27;;;;;;;;;;;2.50;85.30;;;;;;5040366;28;20037;-79
2024/01/28 06:14:53;;;;;;;5.68;0.85;;;2.60;86.90;;;;;;5035582;28;19976;-79
2024/01/28 06:17:19;;;;;;;;;;;2.60;88.30;;;;;;5031744;28;20083;-79
2024/01/28 06:19:44;;;;;;;3.95;1.20;;;2.60;89.80;;;;;;5031741;28;19960;-80
2024/01/28 06:22:10;;;;;;;;;;;2.50;90.20;;;;;;5048208;28;20049;-77
2024/01/28 06:24:35;;;;;;;6.38;0.73;;;2.30;90.80;;;;;;5030153;28;20278;-78
2024/01/28 06:27:01;;;;;;;;;;;2.50;91.40;;;;;;5031477;28;20029;-78
2024/01/28 06:29:27;;;;;;;4.78;1.10;;;2.40;91.60;;;;;;5045505;28;19906;-78
2024/01/28 06:31:52;;;;;;;;;;;2.30;91.90;;;;;;5027346;28;20032;-79
2024/01/28 06:34:18;;;;;;;41.55;13.43;;;2.20;92.50;;;;;;5046496;28;19909;-78
2024/01/28 06:36:44;;;;;;;;;;;2.10;93.50;;;;;;5031469;28;20022;-79
2024/01/28 06:39:09;;;;;;;25.65;6.60;;;1.90;94.60;;;;;;5049233;28;20004;-79
2024/01/28 06:41:37;;;;;;;;;;;1.80;95.20;;;;;;5031364;28;20061;-79
2024/01/28 06:44:03;;;;;;;9.55;1.75;;;1.70;95.80;;;;;;5049968;28;19912;-79
2024/01/28 06:46:28;;;;;;;;;;;1.70;96.50;;;;;;5033009;28;20042;-79
2024/01/28 06:48:54;;;;;;;21.45;9.00;;;1.70;97.50;;;;;;5028483;28;19909;-78
2024/01/28 06:51:19;;;;;;;;;;;1.70;97.40;;;;;;5026739;28;20496;-78
2024/01/28 06:53:46;;;;;;;70.82;29.08;;;1.70;97.60;;;;;;5011892;28;20011;-78
2024/01/28 06:56:11;;;;;;;;;;;1.70;98.70;;;;;;5013064;28;20040;-78
2024/01/28 06:58:37;;;;;;;26.27;11.32;;;1.80;99.30;;;;;;5029765;28;19914;-78
2024/01/28 07:01:03;;;;;;;;;;;2.00;99.40;;;;;;5030381;28;20014;-79
2024/01/28 07:03:29;;;;;;;22.90;9.80;;;2.20;99.60;;;;;;5010704;28;19928;-78
2024/01/28 07:05:54;;;;;;;;;;;2.20;99.50;;;;;;5010202;28;20026;-79
2024/01/28 07:08:20;;;;;;;56.03;24.13;;;2.50;99.80;;;;;;5022084;28;19912;-79
2024/01/28 07:10:46;;;;;;;;;;;3.10;98.10;;;;;;5026056;28;20022;-78
2024/01/28 07:13:11;;;;;;;36.08;14.95;;;3.70;97.10;;;;;;5023730;28;19972;-78
2024/01/28 07:15:37;;;;;;;;;;;4.20;94.80;;;;;;5008156;28;20030;-78
2024/01/28 07:18:03;;;;;;;12.32;4.38;;;4.70;92.50;;;;;;5024673;28;19916;-78
2024/01/28 07:20:28;;;;;;;;;;;5.00;91.60;;;;;;5008546;28;20018;-78
2024/01/28 07:22:54;;;;;;;14.15;7.45;;;5.30;90.70;;;;;;5024022;28;19985;-78
2024/01/28 07:25:19;;;;;;;;;;;5.50;90.60;;;;;;5025611;28;20030;-79
2024/01/28 07:27:46;;;;;;;12.10;4.80;;;5.70;89.60;;;;;;5008824;28;19909;-78
2024/01/28 07:30:12;;;;;;;8.90;2.70;;;5.90;88.80;;;;;;5030244;28;20022;-78
2024/01/28 07:32:37;;;;;;;;;;;5.90;85.10;;;;;;5028389;28;20105;-80
2024/01/28 07:35:04;;;;;;;12.73;5.07;;;5.70;85.50;;;;;;5025587;28;20400;-78
2024/01/28 07:37:30;;;;;;;19.60;7.68;;;5.90;87.40;;;;;;5008248;28;20111;-78
2024/01/28 07:39:55;;;;;;;;;;;6.00;84.40;;;;;;5008052;28;20037;-79
2024/01/28 07:42:21;;;;;;;21.48;8.23;;;6.40;82.10;;;;;;5007116;28;19922;-78
2024/01/28 07:44:46;;;;;;;;;;;6.70;82.90;;;;;;5004355;28;20028;-79
2024/01/28 07:47:12;;;;;;;19.27;8.85;;;7.10;80.20;;;;;;5028684;28;20476;-79
2024/01/28 07:49:37;;;;;;;;;;;7.20;77.20;;;;;;5030919;28;20475;-79
2024/01/28 07:52:04;;;;;;;26.63;10.63;;;7.30;77.30;;;;;;5012162;28;19905;-79
2024/01/28 07:54:29;;;;;;;28.23;12.52;;;7.30;74.00;;;;;;5011934;28;20032;-79
2024/01/28 07:56:55;;;;;;;;;;;7.30;74.60;;;;;;5013121;28;20030;-79
2024/01/28 07:59:21;;;;;;;41.67;24.90;;;7.50;72.70;;;;;;5012673;28;19913;-78
2024/01/28 08:01:47;;;;;;;;;;;7.60;72.30;;;;;;5029679;28;20030;-79
2024/01/28 08:04:13;;;;;;;13.40;6.30;;;7.60;71.70;;;;;;5012069;28;19909;-79
2024/01/28 08:06:38;;;;;;;;;;;7.70;72.10;;;;;;5012194;28;20022;-79
2024/01/28 08:09:04;;;;;;;8.70;3.70;;;7.90;72.00;;;;;;5029485;28;19906;-78
2024/01/28 08:11:30;;;;;;;;;;;8.30;70.30;;;;;;5012499;28;20033;-79
2024/01/28 08:13:55;;;;;;;7.55;3.33;;;8.60;68.70;;;;;;5027643;28;19897;-80
2024/01/28 08:16:21;;;;;;;;;;;8.80;64.10;;;;;;5011313;28;20022;-78
2024/01/28 08:18:47;;;;;;;19.27;7.90;;;8.90;63.60;;;;;;5028715;28;19967;-79
2024/01/28 08:21:13;;;;;;;14.73;6.10;;;9.10;62.70;;;;;;5029751;28;20462;-79
2024/01/28 08:23:38;;;;;;;;;;;9.50;62.70;;;;;;5029489;28;20034;-78
2024/01/28 08:26:05;;;;;;;19.23;6.90;;;9.80;59.40;;;;;;5029456;28;19945;-79
2024/01/28 08:28:31;;;;;;;6.97;2.88;;;10.20;56.60;;;;;;5012713;28;20073;-79
2024/01/28 08:30:57;;;;;;;;;;;10.40;55.80;;;;;;5029867;28;20026;-77
2024/01/28 08:33:22;;;;;;;8.45;2.42;;;10.50;54.10;;;;;;5028316;28;19909;-79
2024/01/28 08:35:48;;;;;;;;;;;10.50;52.70;;;;;;5030651;28;20026;-79
2024/01/28 08:38:13;;;;;;;11.45;4.43;;;10.60;52.80;;;;;;5028773;28;19909;-79
2024/01/28 08:40:39;;;;;;;;;;;10.70;51.90;;;;;;5030403;28;20034;-78
2024/01/28 08:43:07;;;;;;;6.90;2.45;;;11.10;50.90;;;;;;5028443;28;20483;-78
2024/01/28 08:45:32;;;;;;;11.77;5.18;;;11.10;48.10;;;;;;5012160;28;20053;-79
2024/01/28 08:47:58;;;;;;;;;;;11.00;48.70;;;;;;5029562;28;20025;-79
2024/01/28 08:50:24;;;;;;;20.90;13.88;;;11.20;49.30;;;;;;5030298;28;19910;-79
2024/01/28 08:52:51;;;;;;;;;;;11.50;48.80;;;;;;5013685;28;20117;-79
2024/01/28 08:55:17;;;;;;;23.73;7.18;;;11.50;48.40;;;;;;5012799;28;19928;-79
2024/01/28 08:57:43;;;;;;;;;;;11.20;49.60;;;;;;5012161;28;20017;-79
2024/01/28 09:00:11;;;;;;;9.52;2.47;;;10.90;49.70;;;;;;5012099;28;19921;-79
2024/01/28 09:02:38;;;;;;;6.28;2.35;;;10.50;49.40;;;;;;5010238;28;20570;-79
2024/01/28 09:05:04;;;;;;;9.38;2.78;;;10.00;50.20;;;;;;5028285;28;20057;-79
2024/01/28 09:07:30;;;;;;;9.98;2.72;;;9.80;51.00;;;;;;5009418;28;20566;-79
2024/01/28 09:09:55;;;;;;;;;;;9.50;49.90;;;;;;5011003;28;20029;-78
2024/01/28 09:12:21;;;;;;;8.90;3.22;;;9.30;49.00;;;;;;5027832;28;19905;-79
2024/01/28 09:14:47;;;;;;;;;;;9.00;51.30;;;;;;5011818;28;20088;-79
2024/01/28 09:17:12;;;;;;;11.23;3.25;;;8.80;53.00;;;;;;5029421;28;19913;-79
2024/01/28 09:19:38;;;;;;;;;;;8.70;52.80;;;;;;5012665;28;20038;-79
2024/01/28 09:22:05;;;;;;;9.43;2.42;;;8.60;52.70;;;;;;5027840;28;19913;-78
2024/01/28 09:24:31;;;;;;;8.57;2.65;;;8.50;53.50;;;;;;5028715;28;20033;-79
2024/01/28 09:26:58;;;;;;;;;;;8.40;54.20;;;;;;5010533;28;20026;-79
2024/01/28 09:29:26;;;;;;;6.65;2.30;;;8.30;54.50;;;;;;5027720;28;19910;-79
2024/01/28 09:31:52;;;;;;;11.07;4.75;;;8.30;54.40;;;;;;5027364;28;20026;-79
2024/01/28 09:34:18;;;;;;;17.48;10.05;;;8.20;53.70;;;;;;5009311;28;20423;-79
2024/01/28 09:36:44;;;;;;;;;;;8.10;53.50;;;;;;5009233;28;20104;-79
2024/01/28 09:39:11;;;;;;;18.52;8.32;;;8.00;53.80;;;;;;5010000;28;19920;-79
2024/01/28 09:41:47;;;;;;;14.50;6.22;;;7.90;54.50;;;;;;5026384;28;20057;-78
2024/01/28 09:44:13;;;;;;;8.32;3.22;;;7.90;55.40;;;;;;5015055;28;20042;-79
2024/01/28 09:46:39;;;;;;;;;;;7.80;54.70;;;;;;5031938;28;20014;-78
2024/01/28 09:49:11;;;;;;;18.13;4.32;;;7.70;55.10;;;;;;5028779;28;19905;-79
2024/01/28 09:51:37;;;;;;;12.18;4.63;;;7.60;55.60;;;;;;5010386;28;20064;-79
2024/01/28 09:54:03;;;;;;;13.15;4.82;;;7.60;56.00;;;;;;5027544;28;20049;-79
2024/01/28 09:56:29;;;;;;;;;;;7.50;56.50;;;;;;5026117;28;20477;-77
2024/01/28 09:58:55;;;;;;;8.50;2.40;;;7.50;55.50;;;;;;5023140;28;19919;-76
2024/01/28 10:01:21;;;;;;;;;;;7.40;55.30;;;;;;5024856;28;20077;-77
2024/01/28 10:03:48;;;;;;;8.55;2.75;;;7.30;55.50;;;;;;5005435;28;19906;-77
2024/01/28 10:06:13;;;;;;;14.57;4.55;;;7.30;55.00;;;;;;5007757;28;20045;-78
2024/01/28 10:08:40;;;;;;;;;;;7.20;55.30;;;;;;5024820;28;20022;-78
2024/01/28 10:11:06;;;;;;;13.02;3.33;;;7.20;55.80;;;;;;5007117;28;20004;-77
2024/01/28 10:13:32;;;;;;;13.95;3.97;;;7.10;55.70;;;;;;5025077;28;20030;-78
2024/01/28 10:15:58;;;;;;;;;;;7.10;55.80;;;;;;5008915;28;20050;-78
2024/01/28 10:18:27;;;;;;;13.15;4.70;;;7.10;55.90;;;;;;5008929;28;19913;-78
2024/01/28 10:20:52;;;;;;;10.40;3.88;;;7.10;56.20;;;;;;5009244;28;20026;-76
2024/01/28 10:23:18;;;;;;;;;;;7.10;56.80;;;;;;5025892;28;20022;-78
2024/01/28 10:25:45;;;;;;;12.93;3.00;;;7.10;57.50;;;;;;5026315;28;19905;-78
2024/01/28 10:28:10;;;;;;;7.22;2.42;;;7.00;57.40;;;;;;5008668;28;20060;-78
2024/01/28 10:30:36;;;;;;;;;;;7.00;57.70;;;;;;5008960;28;20379;-77
2024/01/28 10:33:02;;;;;;;10.30;3.90;;;7.00;57.70;;;;;;5026198;28;19913;-77
2024/01/28 10:35:28;;;;;;;;;;;6.90;57.30;;;;;;5008920;28;20018;-78
2024/01/28 10:37:56;;;;;;;12.38;3.17;;;6.80;58.00;;;;;;5024733;28;19916;-77
2024/01/28 10:40:27;;;;;;;11.32;2.95;;;6.90;58.60;;;;;;5009264;28;20426;-78
2024/01/28 10:42:57;;;;;;;10.60;3.88;;;6.90;59.10;;;;;;5026053;28;20061;-78
2024/01/28 10:45:24;;;;;;;9.20;3.13;;;6.90;59.80;;;;;;5008564;28;20041;-78
2024/01/28 10:48:05;;;;;;;9.18;2.97;;;6.90;59.80;;;;;;5007776;28;20104;-78
2024/01/28 10:50:33;;;;;;;9.55;2.75;;;6.90;60.40;;;;;;5008931;28;20030;-77
2024/01/28 10:52:59;;;;;;;12.30;3.33;;;6.90;60.80;;;;;;5008340;28;20037;-78
2024/01/28 10:55:26;;;;;;;13.23;2.85;;;6.90;61.30;;;;;;5007545;28;20033;-77
2024/01/28 10:57:52;;;;;;;;;;;6.90;61.40;;;;;;5011467;28;20030;-78
2024/01/28 11:00:20;;;;;;;11.45;3.08;;;6.90;61.50;;;;;;5029346;28;20336;-78
2024/01/28 11:02:47;;;;;;;8.82;2.40;;;6.80;61.80;;;;;;5010926;28;20111;-79
2024/01/28 11:05:13;;;;;;;14.20;3.55;;;6.80;62.20;;;;;;5010793;28;20104;-78
2024/01/28 11:07:39;;;;;;;12.13;3.53;;;6.90;62.20;;;;;;5027345;28;20026;-77
2024/01/28 11:10:05;;;;;;;;;;;6.90;62.50;;;;;;5010539;28;20574;-78
2024/01/28 11:12:32;;;;;;;9.60;3.00;;;6.90;62.60;;;;;;5010891;28;19977;-78
2024/01/28 11:14:59;;;;;;;11.88;3.50;;;6.90;63.00;;;;;;5027519;28;20556;-77
2024/01/28 11:17:32;;;;;;;12.70;3.17;;;6.90;63.10;;;;;;5011113;28;20038;-78
2024/01/28 11:20:12;;;;;;;10.35;3.75;;;6.90;63.20;;;;;;5011015;28;20101;-78
2024/01/28 11:22:50;;;;;;;9.32;3.35;;;7.00;63.10;;;;;;5011317;28;20030;-77
2024/01/28 11:25:20;;;;;;;10.13;3.00;;;7.10;62.80;;;;;;5029447;28;20026;-78
2024/01/28 11:28:07;;;;;;;8.82;2.65;;;7.00;62.30;;;;;;5011473;28;20040;-79
2024/01/28 11:30:34;;;;;;;13.18;3.70;;;7.00;62.60;;;;;;5011667;28;20104;-78
2024/01/28 11:33:13;;;;;;;12.98;3.08;;;7.00;62.60;;;;;;5028564;28;20037;-78
2024/01/28 11:35:44;;;;;;;11.60;3.25;;;7.10;62.10;;;;;;5028289;28;20026;-77
2024/01/28 11:38:10;;;;;;;10.70;3.90;;;7.10;62.50;;;;;;5028232;28;20033;-78
2024/01/28 11:40:39;;;;;;;13.25;3.80;;;7.10;62.30;;;;;;5011560;28;20048;-77
2024/01/28 11:43:09;;;;;;;9.63;4.55;;;7.20;62.60;;;;;;5009160;28;20039;-78
2024/01/28 11:45:36;;;;;;;10.00;3.10;;;7.20;61.90;;;;;;5008166;28;20046;-77
2024/01/28 11:48:06;;;;;;;9.02;2.78;;;7.20;61.40;;;;;;5009072;28;20057;-78
2024/01/28 11:50:32;;;;;;;10.45;2.80;;;7.20;62.60;;;;;;5007685;28;20045;-78
2024/01/28 11:52:57;;;;;;;;;;;7.30;62.20;;;;;;5009539;28;20053;-78
2024/01/28 11:55:23;;;;;;;8.40;2.53;;;7.30;62.40;;;;;;5008643;28;19906;-78
2024/01/28 11:57:48;;;;;;;;;;;7.30;62.70;;;;;;5013668;28;20056;-77
2024/01/28 12:00:15;;;;;;;10.15;2.97;;;7.30;61.30;;;;;;5010285;28;19972;-78
2024/01/28 12:02:42;;;;;;;9.80;2.28;;;7.30;61.90;;;;;;5010942;28;20037;-78
2024/01/28 12:05:09;;;;;;;8.70;2.95;;;7.40;63.00;;;;;;5009139;28;20034;-77
2024/01/28 12:07:37;;;;;;;7.53;2.42;;;7.30;63.30;;;;;;5008998;28;20022;-77
2024/01/28 12:10:06;;;;;;;9.77;2.40;;;7.30;62.40;;;;;;5007041;28;20026;-78
2024/01/28 12:12:34;;;;;;;7.53;2.00;;;7.30;62.50;;;;;;5009862;28;20033;-78
2024/01/28 12:15:02;;;;;;;7.15;2.05;;;7.40;62.30;;;;;;5009090;28;20026;-79
2024/01/28 12:17:27;;;;;;;11.43;4.57;;;7.40;62.00;;;;;;5009404;28;20054;-77
2024/01/28 12:19:53;;;;;;;;;;;7.40;61.30;;;;;;5009966;28;20077;-78
2024/01/28 12:22:19;;;;;;;15.57;6.40;;;7.40;61.40;;;;;;5010154;28;19920;-78
2024/01/28 12:24:47;;;;;;;;;;;7.30;61.60;;;;;;5009467;28;20064;-78
2024/01/28 12:27:16;;;;;;;6.25;1.13;;;7.40;62.60;;;;;;5007913;28;19909;-79
2024/01/28 12:29:42;;;;;;;8.52;2.28;;;7.40;63.40;;;;;;5013124;28;20033;-78
2024/01/28 12:32:08;;;;;;;;;;;7.40;63.10;;;;;;5014349;28;20082;-78
2024/01/28 12:34:36;;;;;;;7.72;1.60;;;7.40;62.90;;;;;;5013567;28;19906;-78
2024/01/28 12:37:02;;;;;;;7.60;2.60;;;7.40;63.70;;;;;;5013774;28;20030;-78
2024/01/28 12:39:28;;;;;;;7.50;1.85;;;7.40;62.80;;;;;;5011886;28;20034;-77
2024/01/28 12:41:54;;;;;;;;;;;7.40;62.60;;;;;;5012099;28;20050;-78
2024/01/28 12:44:20;;;;;;;9.38;1.77;;;7.40;61.10;;;;;;5001462;28;19909;-77
2024/01/28 12:46:46;;;;;;;;;;;7.50;62.50;;;;;;5006431;28;20030;-78
2024/01/28 12:49:12;;;;;;;8.98;1.48;;;7.40;62.50;;;;;;5004412;28;19905;-77
2024/01/28 12:51:37;;;;;;;;;;;7.40;62.30;;;;;;5005394;28;20037;-78
2024/01/28 12:54:03;;;;;;;7.45;1.67;;;7.40;61.80;;;;;;5005945;28;19906;-78
2024/01/28 12:56:28;;;;;;;;;;;7.40;61.80;;;;;;5005825;28;20090;-78
2024/01/28 12:58:55;;;;;;;5.68;1.75;;;7.30;61.70;;;;;;5005402;28;19921;-77
2024/01/28 13:01:21;;;;;;;7.55;2.53;;;7.30;61.80;;;;;;5005256;28;20570;-78
2024/01/28 13:03:46;;;;;;;;;;;7.30;61.80;;;;;;5005574;28;20033;-78
2024/01/28 13:06:12;;;;;;;7.57;2.67;;;7.40;61.60;;;;;;5005402;28;19905;-77
2024/01/28 13:08:38;;;;;;;;;;;7.30;61.60;;;;;;5004752;28;20562;-77
2024/01/28 13:11:04;;;;;;;10.20;1.95;;;7.40;62.20;;;;;;5004183;28;19906;-78
2024/01/28 13:13:36;;;;;;;5.95;1.95;;;7.50;61.30;;;;;;5004394;28;20475;-78
2024/01/28 13:16:02;;;;;;;10.05;1.83;;;7.40;61.30;;;;;;5004913;28;20030;-77
2024/01/28 13:18:27;;;;;;;;;;;7.40;60.70;;;;;;5004403;28;20030;-77